Climbing Hill, Iowa
Current Conditions -  °F | °C
As of 3:52 PM on Wednesday 22 Oct 2014 (Local Time) from KSUX Reporting Station
Clear Clear  
Wind Chill: 74°   Ceiling: Unl
Heat Index: 74°   Visibility: 10mi
Dew Point: 53°   Wind: 15mph
Humidity: 48%   Direction: 170°S
Pressure: 29.95"   Gusts: 21mph
Location:  42.34°N, 96.08°W
Report Text: KSUX 222052Z 17013G18KT 10SM CLR 23/12 A2995 RMK AO2 SLP138 T02330117 56025
Loading
Personal Weather Stations






























Interactive Weather Map
Tropical Storm Tracking
New forecast layout! Learn more

10-Day Weather Forecast

Advertisements
Track Severe Weather on mobile